Time;durP1;ratioP1;P1;durP2;ratioP2;P2;SDS_P1;SDS_P2;PMS_P1;PMS_P2;Temp;Humidity;BMP_temperature;BMP_pressure;BME280_temperature;BME280_humidity;BME280_pressure;Samples;Min_cycle;Max_cycle;Signal;HPM_P1;HPM_P2
2022/05/27 00:01:15;;;;;;;8.63;2.35;;;13.80;99.90;;;;;;5051742;28;20029;-65
2022/05/27 00:03:41;;;;;;;6.07;2.40;;;13.80;99.90;;;;;;5051329;28;20044;-66
2022/05/27 00:06:07;;;;;;;4.13;2.17;;;13.80;99.90;;;;;;5050748;28;20041;-65
2022/05/27 00:08:34;;;;;;;5.63;2.13;;;13.90;99.90;;;;;;5052075;28;20387;-65
2022/05/27 00:11:00;;;;;;;5.53;2.10;;;13.90;99.90;;;;;;5050245;28;20035;-66
2022/05/27 00:13:26;;;;;;;3.72;1.80;;;13.90;99.90;;;;;;5052898;28;20131;-65
2022/05/27 00:15:52;;;;;;;5.05;2.10;;;13.90;99.90;;;;;;5053130;28;20449;-64
2022/05/27 00:18:18;;;;;;;6.20;2.35;;;13.90;99.90;;;;;;5052151;28;20036;-64
2022/05/27 00:20:44;;;;;;;3.42;2.20;;;13.90;99.90;;;;;;5033265;28;20482;-65
2022/05/27 00:23:09;;;;;;;6.43;2.40;;;13.90;99.90;;;;;;5049613;28;20044;-64
2022/05/27 00:25:35;;;;;;;7.05;2.50;;;13.80;99.90;;;;;;5050052;28;20372;-64
2022/05/27 00:28:01;;;;;;;6.63;2.45;;;13.90;99.90;;;;;;5051168;28;20045;-64
2022/05/27 00:30:27;;;;;;;7.15;2.50;;;13.90;99.90;;;;;;5034176;28;20041;-64
2022/05/27 00:32:53;;;;;;;4.28;2.10;;;13.90;99.90;;;;;;5031823;28;21200;-65
2022/05/27 00:35:19;;;;;;;7.13;2.10;;;13.90;99.90;;;;;;5052462;28;20064;-64
2022/05/27 00:37:45;;;;;;;6.35;2.15;;;13.90;99.90;;;;;;5034175;28;20083;-64
2022/05/27 00:40:13;;;;;;;4.95;2.20;;;13.80;99.90;;;;;;5052056;28;20097;-64
2022/05/27 00:42:43;;;;;;;5.43;2.60;;;13.90;99.90;;;;;;5051234;28;20036;-65
2022/05/27 00:45:18;;;;;;;5.75;2.70;;;13.80;99.90;;;;;;5034201;28;20041;-64
2022/05/27 00:47:45;;;;;;;6.15;2.70;;;13.80;99.90;;;;;;5043482;28;20392;-64
2022/05/27 00:50:15;;;;;;;6.65;2.90;;;13.80;99.90;;;;;;5049271;28;20109;-64
2022/05/27 00:52:42;;;;;;;5.38;2.85;;;13.80;99.90;;;;;;5051917;28;20047;-64
2022/05/27 00:55:13;;;;;;;8.02;3.38;;;13.80;99.90;;;;;;5033803;28;20041;-64
2022/05/27 00:57:44;;;;;;;8.32;3.15;;;13.80;99.90;;;;;;5050211;28;20383;-64
2022/05/27 01:00:17;;;;;;;7.40;3.42;;;13.80;99.90;;;;;;5049001;28;20130;-64
2022/05/27 01:02:43;;;;;;;6.40;3.22;;;13.70;99.90;;;;;;5034081;28;20059;-64
2022/05/27 01:05:10;;;;;;;9.07;3.50;;;13.70;99.90;;;;;;5049505;28;20029;-64
2022/05/27 01:07:36;;;;;;;7.88;3.20;;;13.70;99.90;;;;;;5050545;28;20385;-64
2022/05/27 01:10:04;;;;;;;9.35;3.40;;;13.70;99.90;;;;;;5051545;28;20052;-64
2022/05/27 01:12:48;;;;;;;8.25;3.30;;;13.70;99.90;;;;;;5032368;28;20454;-64
2022/05/27 01:15:51;;;;;;;5.93;3.08;;;13.70;99.90;;;;;;5030269;28;20055;-65
2022/05/27 01:20:18;;;;;;;10.45;3.78;;;13.70;99.90;;;;;;4951557;28;20078;-66
2022/05/27 01:21:19;;;;;;;9.70;3.63;;;13.70;99.90;;;;;;5047925;28;20091;-66
2022/05/27 01:24:23;;;;;;;8.80;3.35;;;13.70;99.90;;;;;;5051138;28;20041;-64
2022/05/27 01:27:22;;;;;;;10.18;4.10;;;13.70;99.90;;;;;;5008929;28;20499;-64
2022/05/27 01:30:19;;;;;;;9.45;3.95;;;13.70;99.90;;;;;;5027992;28;20037;-64
2022/05/27 01:33:01;;;;;;;11.75;4.00;;;13.80;99.90;;;;;;5051308;28;20044;-64
2022/05/27 01:35:43;;;;;;;13.45;4.30;;;13.70;99.90;;;;;;5033643;28;20048;-64
2022/05/27 01:38:36;;;;;;;11.20;3.80;;;13.70;99.90;;;;;;5031776;28;20049;-64
2022/05/27 01:41:32;;;;;;;11.80;4.15;;;13.70;99.90;;;;;;5051393;28;20068;-64
2022/05/27 01:44:21;;;;;;;13.55;4.22;;;13.70;99.90;;;;;;5022677;28;20134;-65
2022/05/27 01:46:49;;;;;;;13.50;4.25;;;13.70;99.90;;;;;;5021577;28;20091;-63
2022/05/27 01:49:29;;;;;;;12.60;4.40;;;13.70;99.90;;;;;;5050149;28;20064;-64
2022/05/27 01:52:02;;;;;;;13.32;4.57;;;13.70;99.90;;;;;;5030804;28;20037;-64
2022/05/27 01:55:09;;;;;;;8.77;4.10;;;13.70;99.90;;;;;;5031835;28;20047;-64
2022/05/27 01:57:46;;;;;;;13.88;3.83;;;13.70;99.90;;;;;;4953753;28;20540;-64
2022/05/27 02:00:23;;;;;;;14.25;3.90;;;13.70;99.90;;;;;;4968759;28;20101;-63
2022/05/27 02:03:15;;;;;;;11.65;3.90;;;13.70;99.90;;;;;;5003791;28;20056;-65
2022/05/27 02:06:09;;;;;;;11.82;3.80;;;13.70;99.90;;;;;;5050469;28;20522;-64
2022/05/27 02:08:42;;;;;;;12.23;3.95;;;13.60;99.90;;;;;;5049603;28;20051;-63
2022/05/27 02:11:15;;;;;;;16.85;4.28;;;13.60;99.90;;;;;;5045515;28;20494;-66
2022/05/27 02:13:58;;;;;;;19.45;4.22;;;13.60;99.90;;;;;;5050752;28;20049;-64
2022/05/27 02:16:31;;;;;;;16.25;4.03;;;13.60;99.90;;;;;;5050861;28;20494;-64
2022/05/27 02:19:17;;;;;;;10.70;3.58;;;13.50;99.90;;;;;;5050215;28;20128;-65
2022/05/27 02:21:48;;;;;;;11.38;3.67;;;13.50;99.90;;;;;;5032015;28;20503;-64
2022/05/27 02:24:22;;;;;;;10.40;3.63;;;13.50;99.90;;;;;;5032227;28;20045;-64
2022/05/27 02:26:55;;;;;;;12.93;3.67;;;13.50;99.90;;;;;;5028806;28;20056;-64
2022/05/27 02:29:26;;;;;;;12.27;3.80;;;13.40;99.90;;;;;;5049700;28;20045;-65
2022/05/27 02:31:57;;;;;;;12.73;3.42;;;13.40;99.90;;;;;;5032634;28;20099;-64
2022/05/27 02:37:19;;;;;;;12.65;3.83;;;13.40;99.90;;;;;;5050119;28;20147;-64
2022/05/27 02:39:44;;;;;;;12.82;3.50;;;13.30;99.90;;;;;;5027936;28;20122;-64
2022/05/27 02:42:13;;;;;;;14.63;3.45;;;13.30;99.90;;;;;;5031670;28;20080;-64
2022/05/27 02:44:57;;;;;;;11.98;3.58;;;13.30;99.90;;;;;;5031738;28;20045;-64
2022/05/27 02:47:47;;;;;;;13.05;3.92;;;13.30;99.90;;;;;;5032111;28;20407;-64
2022/05/27 02:50:26;;;;;;;13.18;3.00;;;13.30;99.90;;;;;;5048265;28;20086;-64
2022/05/27 02:53:22;;;;;;;11.55;3.90;;;13.30;99.90;;;;;;5048523;28;20064;-64
2022/05/27 02:56:16;;;;;;;14.07;3.67;;;13.30;99.90;;;;;;5032188;28;20045;-65
2022/05/27 02:58:42;;;;;;;11.30;3.53;;;13.30;99.90;;;;;;5048945;28;20064;-64
2022/05/27 03:01:07;;;;;;;12.63;3.80;;;13.20;99.90;;;;;;5050215;28;20087;-64
2022/05/27 03:03:34;;;;;;;9.98;3.60;;;13.30;99.90;;;;;;5029393;28;20045;-63
2022/05/27 03:06:21;;;;;;;11.07;3.03;;;13.30;99.90;;;;;;5047722;28;20075;-64
2022/05/27 03:08:49;;;;;;;10.88;3.38;;;13.20;99.90;;;;;;5029713;28;20049;-64
2022/05/27 03:11:48;;;;;;;12.57;3.08;;;13.20;99.90;;;;;;5032051;28;20051;-64
2022/05/27 03:14:32;;;;;;;10.60;3.20;;;13.20;99.90;;;;;;5030838;28;20444;-65
2022/05/27 03:17:16;;;;;;;14.82;3.08;;;13.20;99.90;;;;;;5050085;28;20049;-64
2022/05/27 03:20:00;;;;;;;13.32;3.35;;;13.20;99.90;;;;;;5031883;28;20052;-64
2022/05/27 03:22:44;;;;;;;10.75;3.33;;;13.20;99.90;;;;;;5029366;28;20056;-63
2022/05/27 03:25:28;;;;;;;11.07;3.35;;;13.20;99.90;;;;;;5049688;28;20068;-64
2022/05/27 03:27:58;;;;;;;10.43;3.17;;;13.20;99.90;;;;;;5031931;28;20454;-64
2022/05/27 03:30:32;;;;;;;13.05;4.38;;;13.20;99.90;;;;;;5046489;28;20498;-64
2022/05/27 03:33:27;;;;;;;9.80;3.05;;;13.20;99.90;;;;;;5049484;28;20040;-64
2022/05/27 03:35:58;;;;;;;13.45;3.22;;;13.20;99.90;;;;;;5050123;28;20112;-63
2022/05/27 03:38:39;;;;;;;15.18;3.58;;;13.20;99.90;;;;;;5030586;28;20037;-64
2022/05/27 03:41:18;;;;;;;15.88;3.78;;;13.20;99.90;;;;;;5053039;28;20154;-64
2022/05/27 03:43:44;;;;;;;13.70;3.20;;;13.20;99.90;;;;;;5035544;28;20048;-64
2022/05/27 03:46:10;;;;;;;12.07;3.20;;;13.20;99.90;;;;;;5050284;28;20091;-64
2022/05/27 03:48:37;;;;;;;16.25;3.45;;;13.20;99.90;;;;;;5052867;28;20041;-64
2022/05/27 03:51:19;;;;;;;11.23;3.40;;;13.20;99.90;;;;;;5053254;28;20033;-64
2022/05/27 03:54:03;;;;;;;;;;;13.20;99.90;;;;;;5053670;28;20060;-64
2022/05/27 03:56:39;;;;;;;13.90;3.40;;;13.20;99.90;;;;;;5051793;28;19975;-64
2022/05/27 03:59:07;;;;;;;16.52;3.28;;;13.20;99.90;;;;;;5033518;28;20494;-63
2022/05/27 04:01:36;;;;;;;11.85;2.80;;;13.20;99.90;;;;;;5052980;28;20051;-64
2022/05/27 04:04:03;;;;;;;9.88;2.70;;;13.20;99.90;;;;;;5034063;28;20033;-63
2022/05/27 04:06:30;;;;;;;12.93;3.20;;;13.20;99.90;;;;;;5053095;28;20040;-64
2022/05/27 04:08:57;;;;;;;10.10;3.00;;;13.20;99.90;;;;;;5052638;28;20037;-64
2022/05/27 04:11:23;;;;;;;12.05;3.33;;;13.10;99.90;;;;;;5046731;28;20420;-64
2022/05/27 04:13:49;;;;;;;13.95;3.03;;;13.10;99.90;;;;;;5050012;28;20048;-64
2022/05/27 04:16:15;;;;;;;13.98;3.20;;;13.10;99.90;;;;;;5052882;28;20045;-64
2022/05/27 04:18:40;;;;;;;14.45;3.75;;;13.10;99.90;;;;;;5033292;28;20071;-64
2022/05/27 04:21:06;;;;;;;16.23;3.03;;;13.10;99.90;;;;;;5034637;28;20106;-65
2022/05/27 04:23:33;;;;;;;16.45;3.60;;;13.10;99.90;;;;;;5052677;28;20041;-64
2022/05/27 04:25:58;;;;;;;16.42;3.83;;;13.10;99.90;;;;;;5052294;28;20510;-64
2022/05/27 04:28:24;;;;;;;12.02;3.08;;;13.20;99.90;;;;;;5048731;28;20021;-64
2022/05/27 04:30:49;;;;;;;13.25;3.20;;;13.10;99.90;;;;;;5018176;28;20259;-64
2022/05/27 04:33:15;;;;;;;15.20;3.25;;;13.20;99.90;;;;;;5052403;28;20052;-63
2022/05/27 04:35:41;;;;;;;15.35;3.28;;;13.20;99.90;;;;;;5051448;28;20033;-64
2022/05/27 04:38:08;;;;;;;12.30;3.22;;;13.10;99.90;;;;;;5051993;28;20037;-64
2022/05/27 04:40:35;;;;;;;15.18;4.07;;;13.20;99.90;;;;;;5051772;28;20037;-63
2022/05/27 04:43:02;;;;;;;11.45;3.55;;;13.20;99.90;;;;;;5050336;28;20396;-64
2022/05/27 04:45:28;;;;;;;18.65;3.55;;;13.20;99.90;;;;;;5034390;28;20483;-64
2022/05/27 04:47:54;;;;;;;15.75;3.15;;;13.20;99.90;;;;;;5051866;28;20120;-63
2022/05/27 04:50:19;;;;;;;12.40;3.47;;;13.20;99.90;;;;;;5017225;28;20132;-64
2022/05/27 04:52:45;;;;;;;12.55;3.10;;;13.20;99.90;;;;;;5050235;28;20071;-66
2022/05/27 04:55:13;;;;;;;12.68;3.05;;;13.20;99.90;;;;;;5048349;28;20041;-65
2022/05/27 04:57:52;;;;;;;10.85;3.17;;;13.20;99.90;;;;;;5032318;28;20044;-64
2022/05/27 05:00:20;;;;;;;14.35;3.42;;;13.20;99.90;;;;;;5044135;28;20476;-64
2022/05/27 05:02:46;;;;;;;15.43;3.13;;;13.20;99.90;;;;;;5052183;28;20384;-64
2022/05/27 05:05:15;;;;;;;14.48;3.30;;;13.20;99.90;;;;;;5049696;28;20043;-64
2022/05/27 05:07:43;;;;;;;11.57;2.70;;;13.30;99.90;;;;;;5033368;28;20048;-64
2022/05/27 05:10:11;;;;;;;12.52;3.08;;;13.30;99.90;;;;;;5051810;28;20072;-64
2022/05/27 05:12:36;;;;;;;15.02;3.67;;;13.30;99.90;;;;;;5051731;28;20119;-63
2022/05/27 05:15:02;;;;;;;15.30;3.30;;;13.30;99.90;;;;;;5030887;28;20120;-64
2022/05/27 05:17:28;;;;;;;18.42;2.88;;;13.40;99.90;;;;;;5050268;28;20107;-64
2022/05/27 05:19:55;;;;;;;10.77;2.90;;;13.40;99.90;;;;;;5049695;28;20123;-66
2022/05/27 05:22:22;;;;;;;11.48;3.15;;;13.50;99.90;;;;;;5049207;28;20041;-64
2022/05/27 05:24:48;;;;;;;13.82;3.38;;;13.50;99.90;;;;;;5046080;23;20392;-63
2022/05/27 05:27:14;;;;;;;12.63;2.72;;;13.50;99.90;;;;;;4986308;28;20042;-63
2022/05/27 05:29:40;;;;;;;11.57;3.08;;;13.50;99.90;;;;;;4996962;28;20480;-63
2022/05/27 05:32:06;;;;;;;13.43;3.00;;;13.50;99.90;;;;;;4985829;28;20034;-62
2022/05/27 05:34:32;;;;;;;12.57;2.60;;;13.60;99.90;;;;;;4978261;28;20563;-63
2022/05/27 05:36:57;;;;;;;14.32;3.17;;;13.60;99.90;;;;;;4981976;28;20419;-63
2022/05/27 05:39:24;;;;;;;12.05;2.75;;;13.60;99.90;;;;;;4978925;28;20080;-63
2022/05/27 05:41:58;;;;;;;13.93;2.90;;;13.70;99.90;;;;;;4979780;28;20078;-63
2022/05/27 05:44:26;;;;;;;9.27;2.70;;;13.70;99.90;;;;;;4960125;28;20413;-62
2022/05/27 05:46:52;;;;;;;13.02;3.05;;;13.70;99.90;;;;;;4963950;28;20050;-63
2022/05/27 05:49:18;;;;;;;13.52;3.10;;;13.70;99.90;;;;;;4960103;28;20069;-62
2022/05/27 05:51:44;;;;;;;12.13;2.83;;;13.70;99.90;;;;;;4966496;28;20050;-62
2022/05/27 05:54:10;;;;;;;11.15;2.78;;;13.70;99.90;;;;;;4966765;28;20038;-62
2022/05/27 05:56:35;;;;;;;10.07;2.80;;;13.70;99.90;;;;;;4980967;28;20127;-63
2022/05/27 05:59:01;;;;;;;16.55;3.03;;;13.70;99.90;;;;;;4962251;28;20112;-63
2022/05/27 06:01:27;;;;;;;8.77;2.35;;;13.70;99.90;;;;;;4968955;28;20484;-63
2022/05/27 06:03:53;;;;;;;12.98;2.60;;;13.70;99.90;;;;;;4970003;28;20042;-62
2022/05/27 06:06:18;;;;;;;11.00;2.97;;;13.80;99.90;;;;;;4972530;28;20334;-62
2022/05/27 06:08:44;;;;;;;12.88;3.13;;;13.80;99.90;;;;;;4973336;28;20034;-63
2022/05/27 06:11:10;;;;;;;12.50;3.40;;;13.80;99.90;;;;;;4972890;28;20177;-63
2022/05/27 06:13:36;;;;;;;15.50;3.17;;;13.80;99.90;;;;;;4989217;28;20042;-63
2022/05/27 06:16:03;;;;;;;14.00;2.95;;;13.80;99.90;;;;;;4991553;28;20046;-63
2022/05/27 06:18:29;;;;;;;15.20;2.53;;;13.80;99.90;;;;;;4991027;28;20101;-63
2022/05/27 06:20:54;;;;;;;13.80;2.95;;;13.70;99.90;;;;;;4987355;28;20046;-63
2022/05/27 06:23:21;;;;;;;15.23;3.22;;;13.70;99.90;;;;;;4977616;28;20031;-63
2022/05/27 06:25:53;;;;;;;16.02;3.40;;;13.70;99.90;;;;;;4985659;28;20046;-62
2022/05/27 06:36:33;;;;;;;15.48;3.10;;;13.60;99.90;;;;;;4969445;28;20050;-63
2022/05/27 06:38:58;;;;;;;13.30;3.17;;;13.60;99.90;;;;;;4989360;28;20046;-63
2022/05/27 06:41:24;;;;;;;13.93;3.10;;;13.60;99.90;;;;;;4988704;28;20476;-63
2022/05/27 06:43:49;;;;;;;13.07;3.33;;;13.60;99.90;;;;;;4983825;28;20042;-62
2022/05/27 06:46:15;;;;;;;12.60;3.20;;;13.60;99.90;;;;;;4989328;28;20049;-62
2022/05/27 06:48:41;;;;;;;17.48;3.10;;;13.60;99.90;;;;;;4983675;28;20034;-62
2022/05/27 06:51:07;;;;;;;15.07;3.45;;;13.70;99.90;;;;;;4963947;28;20137;-63
2022/05/27 06:53:33;;;;;;;17.08;3.25;;;13.70;99.90;;;;;;4978648;28;20478;-63
2022/05/27 06:55:58;;;;;;;15.40;3.58;;;13.70;99.90;;;;;;4982695;28;20121;-62
2022/05/27 06:58:24;;;;;;;13.70;3.30;;;13.70;99.90;;;;;;4972986;28;20066;-62
2022/05/27 07:00:50;;;;;;;11.75;3.10;;;13.60;99.90;;;;;;4973065;28;20580;-62
2022/05/27 07:03:15;;;;;;;19.10;3.45;;;13.60;99.90;;;;;;4983925;28;20456;-62
2022/05/27 07:05:41;;;;;;;13.65;3.30;;;13.50;99.90;;;;;;4975016;28;20042;-62
2022/05/27 07:08:07;;;;;;;16.98;3.40;;;13.50;99.90;;;;;;4964330;28;20043;-62
2022/05/27 07:10:33;;;;;;;14.98;3.90;;;13.50;99.90;;;;;;4983530;28;20485;-63
2022/05/27 07:12:59;;;;;;;15.70;3.40;;;13.50;99.90;;;;;;4981489;28;20118;-63
2022/05/27 07:15:30;;;;;;;13.02;3.42;;;13.40;99.90;;;;;;4968643;28;20042;-62
2022/05/27 07:17:56;;;;;;;12.32;3.33;;;13.40;99.90;;;;;;4963656;28;20052;-63
2022/05/27 07:20:23;;;;;;;12.45;3.15;;;13.40;99.90;;;;;;4968398;28;20038;-63
2022/05/27 07:22:52;;;;;;;14.27;3.08;;;13.40;99.90;;;;;;4968423;28;20485;-62
2022/05/27 07:25:18;;;;;;;17.27;3.60;;;13.30;99.90;;;;;;4967363;28;21610;-63
2022/05/27 07:27:44;;;;;;;13.65;3.20;;;13.40;99.90;;;;;;4960505;28;20047;-63
2022/05/27 07:30:14;;;;;;;18.13;3.90;;;13.40;99.90;;;;;;4972449;28;20070;-63
2022/05/27 07:32:40;;;;;;;12.93;3.20;;;13.50;99.90;;;;;;4963241;28;20105;-63
2022/05/27 07:35:08;;;;;;;19.02;3.95;;;13.60;99.90;;;;;;4983721;28;20042;-62
2022/05/27 07:37:34;;;;;;;12.55;3.42;;;13.60;99.90;;;;;;4988227;28;20133;-63
2022/05/27 07:40:00;;;;;;;17.80;3.38;;;13.70;99.90;;;;;;4960165;28;20133;-62
2022/05/27 07:42:25;;;;;;;15.00;3.80;;;13.70;99.90;;;;;;4958579;28;20039;-63
2022/05/27 07:44:51;;;;;;;14.75;3.65;;;13.70;99.90;;;;;;4976134;28;20034;-63
2022/05/27 07:47:17;;;;;;;14.18;3.20;;;13.80;99.90;;;;;;5012922;28;20034;-62
2022/05/27 07:49:43;;;;;;;13.77;3.15;;;13.80;99.90;;;;;;5013842;28;20045;-62
2022/05/27 07:52:09;;;;;;;46.13;5.45;;;13.80;99.90;;;;;;4985418;28;20053;-63
2022/05/27 07:54:35;;;;;;;14.50;3.10;;;13.80;99.90;;;;;;4972402;28;20202;-63
2022/05/27 07:57:01;;;;;;;10.50;3.10;;;13.80;99.90;;;;;;4974148;28;20069;-63
2022/05/27 07:59:27;;;;;;;11.13;3.50;;;13.80;99.90;;;;;;4993035;28;20045;-62
2022/05/27 08:01:53;;;;;;;13.73;2.95;;;13.80;99.90;;;;;;4975992;28;20053;-62
2022/05/27 08:04:19;;;;;;;13.77;3.20;;;13.80;99.90;;;;;;4976133;28;20042;-63
2022/05/27 08:06:45;;;;;;;16.48;3.47;;;13.80;99.90;;;;;;4993550;28;20038;-63
2022/05/27 08:09:12;;;;;;;12.88;3.33;;;13.80;99.90;;;;;;4992326;28;20038;-63
2022/05/27 08:11:38;;;;;;;19.65;3.47;;;13.80;99.90;;;;;;4993762;28;20038;-63
2022/05/27 08:14:05;;;;;;;16.00;2.80;;;13.80;99.90;;;;;;4976112;28;20563;-62
2022/05/27 08:16:33;;;;;;;14.50;3.50;;;13.90;99.90;;;;;;4984691;28;20088;-63
2022/05/27 08:18:59;;;;;;;12.10;2.92;;;14.00;99.90;;;;;;4969892;28;20477;-63
2022/05/27 08:21:26;;;;;;;10.93;3.10;;;14.10;99.90;;;;;;4968419;28;20042;-62
2022/05/27 08:23:52;;;;;;;13.77;3.20;;;14.30;99.90;;;;;;4977664;28;20030;-62
2022/05/27 08:26:18;;;;;;;11.85;3.13;;;14.30;99.90;;;;;;4981368;28;20082;-63
2022/05/27 08:28:44;;;;;;;11.98;3.33;;;14.40;99.90;;;;;;4981673;28;20574;-62
2022/05/27 08:31:09;;;;;;;14.77;3.13;;;14.70;99.90;;;;;;4991693;28;20026;-62
2022/05/27 08:39:11;;;;;;;17.25;2.95;;;14.90;99.90;;;;;;4984078;28;20042;-62
2022/05/27 08:42:03;;;;;;;10.90;2.78;;;15.10;99.90;;;;;;4958492;28;20039;-63
2022/05/27 08:44:47;;;;;;;10.77;2.45;;;15.30;99.90;;;;;;4968271;28;20038;-62
2022/05/27 08:47:26;;;;;;;7.25;2.50;;;15.70;99.90;;;;;;4966148;28;20069;-62
2022/05/27 08:50:21;;;;;;;10.95;2.58;;;16.10;99.90;;;;;;4980698;28;20552;-63
2022/05/27 08:52:53;;;;;;;11.63;2.63;;;16.30;99.90;;;;;;4967191;28;20493;-63
2022/05/27 09:01:42;;;;;;;9.98;2.22;;;16.70;98.40;;;;;;4896222;29;20052;-63
2022/05/27 09:04:47;;;;;;;10.02;2.25;;;16.80;99.90;;;;;;4965157;28;20053;-63
2022/05/27 09:07:36;;;;;;;15.10;2.88;;;16.90;98.20;;;;;;4980328;28;20034;-63
2022/05/27 09:10:07;;;;;;;12.80;2.97;;;17.10;98.20;;;;;;4983276;28;20094;-63
2022/05/27 09:13:12;;;;;;;9.30;2.45;;;17.30;98.60;;;;;;4978396;28;20038;-63
2022/05/27 09:15:40;;;;;;;11.70;2.60;;;17.30;97.60;;;;;;4955356;28;20047;-63
2022/05/27 09:18:30;;;;;;;12.07;2.50;;;17.20;98.10;;;;;;4965841;28;20047;-63
2022/05/27 09:21:49;;;;;;;11.50;2.30;;;17.00;97.50;;;;;;4980125;28;20104;-63
2022/05/27 09:24:39;;;;;;;10.23;2.60;;;17.00;97.70;;;;;;4978227;28;20050;-63
2022/05/27 09:27:34;;;;;;;9.82;2.58;;;17.00;97.40;;;;;;4967476;28;20148;-63
2022/05/27 09:30:05;;;;;;;7.25;1.90;;;16.80;95.90;;;;;;4932842;28;20134;-63
2022/05/27 09:32:59;;;;;;;10.05;2.28;;;16.70;95.80;;;;;;4954864;28;20065;-64
2022/05/27 09:35:44;;;;;;;8.57;2.17;;;16.80;95.60;;;;;;4982677;28;20042;-63
2022/05/27 09:38:23;;;;;;;7.35;2.08;;;16.90;96.50;;;;;;4978917;28;20034;-63
2022/05/27 09:40:51;;;;;;;10.25;2.17;;;16.70;95.90;;;;;;4973424;28;20047;-64
2022/05/27 09:43:32;;;;;;;7.00;1.77;;;16.70;97.00;;;;;;4984462;28;20062;-64
2022/05/27 09:46:01;;;;;;;10.63;2.20;;;17.00;97.60;;;;;;4964992;28;20069;-64
2022/05/27 09:48:27;;;;;;;6.30;1.98;;;17.40;96.80;;;;;;4987485;28;20066;-64
2022/05/27 09:50:55;;;;;;;10.20;2.20;;;17.70;95.00;;;;;;4965611;28;20034;-63
2022/05/27 09:53:28;;;;;;;9.90;2.10;;;17.70;94.50;;;;;;4987861;28;20042;-64
2022/05/27 09:56:11;;;;;;;7.30;2.10;;;17.60;91.90;;;;;;4992139;28;20559;-64
2022/05/27 09:58:44;;;;;;;6.72;1.88;;;17.50;93.30;;;;;;4990965;28;20161;-64
2022/05/27 10:01:23;;;;;;;6.07;1.90;;;17.50;94.00;;;;;;4974669;28;20540;-64
2022/05/27 10:04:07;;;;;;;10.77;2.17;;;17.80;93.10;;;;;;4975669;28;20039;-64
2022/05/27 10:06:36;;;;;;;7.78;2.22;;;17.90;91.40;;;;;;4981569;28;20042;-64
2022/05/27 10:09:05;;;;;;;8.88;2.17;;;17.70;90.50;;;;;;4984076;28;20045;-64
2022/05/27 10:11:46;;;;;;;7.85;2.40;;;17.60;91.50;;;;;;4973719;28;20038;-64
2022/05/27 10:14:33;;;;;;;10.93;2.65;;;17.80;92.00;;;;;;4972958;28;20050;-64
2022/05/27 10:17:09;;;;;;;9.23;2.28;;;18.00;91.60;;;;;;4973894;28;20512;-64
2022/05/27 10:19:41;;;;;;;11.18;2.63;;;18.30;90.70;;;;;;4971410;28;20038;-64
2022/05/27 10:22:19;;;;;;;11.60;2.40;;;18.40;88.30;;;;;;4966792;28;20046;-64
2022/05/27 10:24:53;;;;;;;8.60;2.45;;;18.20;85.50;;;;;;4989553;28;20042;-64
2022/05/27 10:27:20;;;;;;;10.93;3.13;;;18.10;88.80;;;;;;4965883;28;20042;-63
2022/05/27 10:29:51;;;;;;;12.38;2.50;;;18.00;87.40;;;;;;4981424;28;20050;-64
2022/05/27 10:32:37;;;;;;;11.25;2.47;;;17.80;87.90;;;;;;4966135;28;20041;-64
2022/05/27 10:35:27;;;;;;;13.45;2.70;;;17.60;90.00;;;;;;4965967;28;20057;-64
2022/05/27 10:38:09;;;;;;;10.95;2.30;;;17.50;90.30;;;;;;4969594;28;20049;-64
2022/05/27 10:40:45;;;;;;;13.73;2.65;;;17.60;90.80;;;;;;4989078;28;20073;-64
2022/05/27 10:43:46;;;;;;;8.60;2.50;;;17.80;88.80;;;;;;4971084;28;20485;-64
2022/05/27 10:46:15;;;;;;;9.02;2.58;;;17.90;89.40;;;;;;4969840;28;20085;-64
2022/05/27 10:48:49;;;;;;;10.55;2.47;;;17.90;90.50;;;;;;4987278;28;20117;-64
2022/05/27 10:51:23;;;;;;;11.82;2.60;;;18.00;90.20;;;;;;4968036;28;20038;-64
2022/05/27 10:54:01;;;;;;;9.52;2.60;;;18.10;86.80;;;;;;4986357;28;20465;-64
2022/05/27 11:03:24;;;;;;;9.32;2.05;;;18.20;81.90;;;;;;4963823;28;20082;-64
2022/05/27 11:06:02;;;;;;;8.82;2.40;;;17.90;84.80;;;;;;4972106;28;20587;-64
2022/05/27 11:08:31;;;;;;;8.73;2.40;;;17.90;86.30;;;;;;4975423;28;20374;-64
2022/05/27 11:11:20;;;;;;;11.32;2.35;;;18.10;86.10;;;;;;4993950;28;20039;-64
2022/05/27 11:17:24;;;;;;;10.38;3.10;;;18.20;76.20;;;;;;4973238;28;20050;-64
2022/05/27 11:19:52;;;;;;;9.45;2.58;;;17.90;80.80;;;;;;4987167;28;20050;-64
2022/05/27 11:22:35;;;;;;;12.45;2.80;;;17.80;84.40;;;;;;4976772;28;20046;-64
2022/05/27 11:25:21;;;;;;;8.77;2.67;;;17.80;87.20;;;;;;5016642;23;20038;-64
2022/05/27 11:28:11;;;;;;;7.72;2.40;;;17.90;87.90;;;;;;5009784;28;20121;-64
2022/05/27 11:30:39;;;;;;;8.85;2.35;;;18.00;88.30;;;;;;5008648;28;20041;-65
2022/05/27 11:33:26;;;;;;;11.95;2.50;;;17.90;89.00;;;;;;4996392;28;20048;-65
2022/05/27 11:36:17;;;;;;;10.68;2.50;;;17.80;88.20;;;;;;4996437;28;20042;-64
2022/05/27 11:39:12;;;;;;;12.80;3.08;;;17.70;88.40;;;;;;4996191;28;20038;-64
2022/05/27 11:41:57;;;;;;;11.48;2.80;;;17.90;89.60;;;;;;4996276;28;20040;-65
2022/05/27 11:44:42;;;;;;;11.57;2.83;;;18.20;90.00;;;;;;4995408;28;20046;-65
2022/05/27 11:47:53;;;;;;;8.07;2.35;;;18.60;88.70;;;;;;5013233;28;20038;-65
2022/05/27 11:50:36;;;;;;;8.55;2.33;;;18.90;82.80;;;;;;4967535;28;20081;-65
2022/05/27 11:53:25;;;;;;;10.23;2.72;;;18.80;81.40;;;;;;4994835;28;20091;-64
2022/05/27 11:56:08;;;;;;;11.88;3.05;;;18.70;82.90;;;;;;4976397;28;20046;-65
2022/05/27 11:59:28;;;;;;;11.45;2.53;;;18.50;84.30;;;;;;4976173;28;20051;-64
2022/05/27 12:02:13;;;;;;;11.85;2.80;;;18.40;84.40;;;;;;4959308;28;20528;-65
2022/05/27 12:04:49;;;;;;;11.90;2.80;;;18.00;85.10;;;;;;4974814;28;20497;-64
2022/05/27 12:07:30;;;;;;;9.93;2.63;;;18.00;86.80;;;;;;5000830;28;20068;-65
2022/05/27 12:10:23;;;;;;;11.65;2.70;;;18.20;89.20;;;;;;5013135;28;20037;-65
2022/05/27 12:13:06;;;;;;;12.52;3.05;;;18.40;84.90;;;;;;4950975;28;20057;-64
2022/05/27 12:15:46;;;;;;;13.23;2.80;;;18.30;85.00;;;;;;5013078;28;20411;-64
2022/05/27 12:18:22;;;;;;;8.32;2.40;;;18.30;86.00;;;;;;5010900;28;20092;-65
2022/05/27 12:20:48;;;;;;;11.52;2.90;;;18.60;86.80;;;;;;4995542;28;20496;-64
2022/05/27 12:23:18;;;;;;;11.35;2.70;;;18.90;85.20;;;;;;5012874;28;20511;-64
2022/05/27 12:25:50;;;;;;;12.68;2.67;;;18.90;84.30;;;;;;4975701;28;20047;-65
2022/05/27 12:28:19;;;;;;;10.98;2.78;;;19.00;84.30;;;;;;4975617;28;20101;-65
2022/05/27 12:30:46;;;;;;;9.48;2.90;;;19.00;83.10;;;;;;5006726;28;20049;-65
2022/05/27 12:33:18;;;;;;;10.68;2.72;;;18.90;79.20;;;;;;5012990;28;20074;-65
2022/05/27 12:35:59;;;;;;;9.60;2.53;;;18.80;79.40;;;;;;4995516;28;20045;-64
2022/05/27 12:38:30;;;;;;;11.00;3.03;;;18.90;81.40;;;;;;4994827;28;20069;-65
2022/05/27 12:41:06;;;;;;;11.75;2.50;;;19.00;80.30;;;;;;4994768;28;20034;-64
2022/05/27 12:43:59;;;;;;;11.25;2.63;;;19.20;79.50;;;;;;5013061;28;20451;-65
2022/05/27 12:46:32;;;;;;;13.68;2.58;;;19.20;75.50;;;;;;4994824;28;20033;-65
2022/05/27 12:49:23;;;;;;;10.75;2.35;;;18.90;75.20;;;;;;5012150;28;20552;-64
2022/05/27 12:51:49;;;;;;;11.50;2.90;;;18.50;77.60;;;;;;5012850;28;20475;-65
2022/05/27 12:54:42;;;;;;;12.27;2.83;;;18.30;76.40;;;;;;5012325;28;20574;-64
2022/05/27 13:03:40;;;;;;;10.93;2.53;;;18.30;84.10;;;;;;4994658;28;20042;-64
2022/05/27 13:06:13;;;;;;;;;;;18.40;83.40;;;;;;4995289;28;20060;-64
2022/05/27 13:08:50;;;;;;;11.88;2.60;;;18.40;80.10;;;;;;4994211;28;19972;-64
2022/05/27 13:11:22;;;;;;;12.02;2.75;;;18.30;77.80;;;;;;5012159;28;20503;-64
2022/05/27 13:13:52;;;;;;;11.27;2.40;;;18.10;78.80;;;;;;4994419;28;20042;-64
2022/05/27 13:16:29;;;;;;;10.75;2.80;;;18.10;82.10;;;;;;4994344;28;20408;-65
2022/05/27 13:19:01;;;;;;;10.88;3.05;;;18.10;82.40;;;;;;4994195;28;20117;-64
2022/05/27 13:21:27;;;;;;;11.85;3.20;;;18.10;80.60;;;;;;5012025;28;20446;-64
2022/05/27 13:24:01;;;;;;;13.73;2.83;;;18.00;80.90;;;;;;4994585;28;20046;-64
2022/05/27 13:26:41;;;;;;;14.90;2.80;;;17.80;82.80;;;;;;5011870;28;20042;-64
2022/05/27 13:29:16;;;;;;;13.23;2.90;;;17.70;83.40;;;;;;5008121;28;20253;-64
2022/05/27 13:31:44;;;;;;;15.40;3.38;;;17.50;84.30;;;;;;5009355;28;20041;-64
2022/05/27 13:34:50;;;;;;;12.15;2.63;;;17.40;84.90;;;;;;5011850;28;20048;-64
2022/05/27 13:37:39;;;;;;;10.95;2.60;;;17.40;86.20;;;;;;5004449;28;20054;-65
2022/05/27 13:40:23;;;;;;;11.38;2.78;;;17.50;85.10;;;;;;4998948;28;20128;-64
2022/05/27 13:42:52;;;;;;;13.93;2.97;;;17.40;87.20;;;;;;5003937;28;20155;-64
2022/05/27 13:45:33;;;;;;;11.07;2.70;;;17.40;88.30;;;;;;5010211;28;20069;-64
2022/05/27 13:48:09;;;;;;;11.25;2.30;;;17.50;89.20;;;;;;5010496;28;20061;-64
2022/05/27 13:50:38;;;;;;;11.77;2.80;;;17.70;87.60;;;;;;5009910;28;20467;-65
2022/05/27 13:53:20;;;;;;;11.88;2.40;;;17.80;86.50;;;;;;4989438;28;20870;-64
2022/05/27 13:55:49;;;;;;;12.13;2.55;;;17.80;86.90;;;;;;4990630;28;20045;-64